sensor_id;sensor_type;location;lat;lon;timestamp;temperature;humidity
108;DHT22;49;48.530;9.200;2023-07-28T00:01:57;21.70;1.00
108;DHT22;49;48.530;9.200;2023-07-28T00:04:24;21.60;1.00
108;DHT22;49;48.530;9.200;2023-07-28T00:06:51;21.70;1.00
108;DHT22;49;48.530;9.200;2023-07-28T00:09:19;21.60;1.00
108;DHT22;49;48.530;9.200;2023-07-28T00:11:46;21.60;1.00
108;DHT22;49;48.530;9.200;2023-07-28T00:14:13;21.60;1.00
108;DHT22;49;48.530;9.200;2023-07-28T00:16:40;21.50;1.00
108;DHT22;49;48.530;9.200;2023-07-28T00:19:07;21.40;1.00
108;DHT22;49;48.530;9.200;2023-07-28T00:21:34;21.40;1.40
108;DHT22;49;48.530;9.200;2023-07-28T00:24:00;21.30;1.00
108;DHT22;49;48.530;9.200;2023-07-28T00:26:29;21.20;1.20
108;DHT22;49;48.530;9.200;2023-07-28T00:28:56;21.30;1.00
108;DHT22;49;48.530;9.200;2023-07-28T00:31:24;21.10;1.70
108;DHT22;49;48.530;9.200;2023-07-28T00:33:51;21.10;1.00
108;DHT22;49;48.530;9.200;2023-07-28T00:36:18;21.20;1.20
108;DHT22;49;48.530;9.200;2023-07-28T00:38:45;21.40;1.00
108;DHT22;49;48.530;9.200;2023-07-28T00:41:12;21.50;1.00
108;DHT22;49;48.530;9.200;2023-07-28T00:43:40;21.50;1.00
108;DHT22;49;48.530;9.200;2023-07-28T00:46:08;21.50;1.00
108;DHT22;49;48.530;9.200;2023-07-28T00:48:35;21.60;1.00
108;DHT22;49;48.530;9.200;2023-07-28T00:51:02;21.40;1.00
108;DHT22;49;48.530;9.200;2023-07-28T00:53:30;21.10;1.00
108;DHT22;49;48.530;9.200;2023-07-28T00:55:57;21.00;1.10
108;DHT22;49;48.530;9.200;2023-07-28T00:58:24;20.90;1.00
108;DHT22;49;48.530;9.200;2023-07-28T01:00:52;20.90;1.00
108;DHT22;49;48.530;9.200;2023-07-28T01:03:21;21.10;1.00
108;DHT22;49;48.530;9.200;2023-07-28T01:05:57;21.00;1.00
108;DHT22;49;48.530;9.200;2023-07-28T01:08:29;21.10;1.10
108;DHT22;49;48.530;9.200;2023-07-28T01:10:57;21.20;1.00
108;DHT22;49;48.530;9.200;2023-07-28T01:13:24;21.10;1.00
108;DHT22;49;48.530;9.200;2023-07-28T01:15:50;20.90;1.80
108;DHT22;49;48.530;9.200;2023-07-28T01:18:19;20.80;1.80
108;DHT22;49;48.530;9.200;2023-07-28T01:20:46;21.00;1.00
108;DHT22;49;48.530;9.200;2023-07-28T01:23:19;21.10;1.00
108;DHT22;49;48.530;9.200;2023-07-28T01:26:03;21.30;1.00
108;DHT22;49;48.530;9.200;2023-07-28T01:28:34;21.20;1.00
108;DHT22;49;48.530;9.200;2023-07-28T01:31:02;21.10;1.00
108;DHT22;49;48.530;9.200;2023-07-28T01:33:29;20.90;1.40
108;DHT22;49;48.530;9.200;2023-07-28T01:35:56;21.10;1.00
108;DHT22;49;48.530;9.200;2023-07-28T01:38:24;21.10;1.10
108;DHT22;49;48.530;9.200;2023-07-28T01:40:51;20.90;1.00
108;DHT22;49;48.530;9.200;2023-07-28T01:43:17;20.80;1.40
108;DHT22;49;48.530;9.200;2023-07-28T01:45:46;20.50;2.10
108;DHT22;49;48.530;9.200;2023-07-28T01:48:13;20.60;1.90
108;DHT22;49;48.530;9.200;2023-07-28T01:50:40;20.50;1.80
108;DHT22;49;48.530;9.200;2023-07-28T01:53:07;20.40;2.50
108;DHT22;49;48.530;9.200;2023-07-28T01:55:34;20.70;1.40
108;DHT22;49;48.530;9.200;2023-07-28T01:58:01;20.70;2.20
108;DHT22;49;48.530;9.200;2023-07-28T02:00:28;20.70;1.50
108;DHT22;49;48.530;9.200;2023-07-28T02:02:57;20.70;1.20
108;DHT22;49;48.530;9.200;2023-07-28T02:05:27;20.70;1.60
108;DHT22;49;48.530;9.200;2023-07-28T02:07:54;20.60;2.30
108;DHT22;49;48.530;9.200;2023-07-28T02:10:22;20.70;1.60
108;DHT22;49;48.530;9.200;2023-07-28T02:12:49;20.80;1.00
108;DHT22;49;48.530;9.200;2023-07-28T02:15:16;21.20;1.00
108;DHT22;49;48.530;9.200;2023-07-28T02:17:43;21.20;1.00
108;DHT22;49;48.530;9.200;2023-07-28T02:20:11;21.20;1.00
108;DHT22;49;48.530;9.200;2023-07-28T02:22:41;20.90;1.00
108;DHT22;49;48.530;9.200;2023-07-28T02:25:08;20.90;1.00
108;DHT22;49;48.530;9.200;2023-07-28T02:27:35;20.90;1.00
108;DHT22;49;48.530;9.200;2023-07-28T02:30:03;20.70;1.80
108;DHT22;49;48.530;9.200;2023-07-28T02:32:30;20.80;1.00
108;DHT22;49;48.530;9.200;2023-07-28T02:34:57;21.00;1.00
108;DHT22;49;48.530;9.200;2023-07-28T02:37:26;20.90;1.00
108;DHT22;49;48.530;9.200;2023-07-28T02:39:53;20.90;1.30
108;DHT22;49;48.530;9.200;2023-07-28T02:42:20;20.90;1.10
108;DHT22;49;48.530;9.200;2023-07-28T02:44:46;20.90;1.20
108;DHT22;49;48.530;9.200;2023-07-28T02:47:13;21.00;1.30
108;DHT22;49;48.530;9.200;2023-07-28T02:49:41;20.80;1.10
108;DHT22;49;48.530;9.200;2023-07-28T02:55:32;20.90;1.40
108;DHT22;49;48.530;9.200;2023-07-28T02:57:59;20.90;1.90
108;DHT22;49;48.530;9.200;2023-07-28T03:17:44;20.80;1.10
108;DHT22;49;48.530;9.200;2023-07-28T03:57:39;21.30;1.00
108;DHT22;49;48.530;9.200;2023-07-28T04:02:34;21.40;1.00
108;DHT22;49;48.530;9.200;2023-07-28T04:09:59;21.20;1.10
108;DHT22;49;48.530;9.200;2023-07-28T04:57:06;22.40;1.00
108;DHT22;49;48.530;9.200;2023-07-28T05:16:53;22.90;1.00
108;DHT22;49;48.530;9.200;2023-07-28T05:54:02;23.10;1.00
108;DHT22;49;48.530;9.200;2023-07-28T06:56:03;23.70;1.00
108;DHT22;49;48.530;9.200;2023-07-28T07:03:28;23.40;2.90
108;DHT22;49;48.530;9.200;2023-07-28T07:05:58;23.70;3.30
108;DHT22;49;48.530;9.200;2023-07-28T08:30:05;27.10;1.00
108;DHT22;49;48.530;9.200;2023-07-28T09:49:21;29.30;1.00
108;DHT22;49;48.530;9.200;2023-07-28T10:14:01;30.70;1.00
108;DHT22;49;48.530;9.200;2023-07-28T11:45:54;26.70;1.00
108;DHT22;49;48.530;9.200;2023-07-28T11:48:21;27.00;1.00
108;DHT22;49;48.530;9.200;2023-07-28T11:53:15;27.30;1.00
108;DHT22;49;48.530;9.200;2023-07-28T11:55:42;27.00;1.00
108;DHT22;49;48.530;9.200;2023-07-28T11:58:09;27.10;1.00
108;DHT22;49;48.530;9.200;2023-07-28T12:00:40;27.20;1.00
108;DHT22;49;48.530;9.200;2023-07-28T12:03:10;27.60;1.00
108;DHT22;49;48.530;9.200;2023-07-28T12:05:38;27.80;1.00
108;DHT22;49;48.530;9.200;2023-07-28T12:10:35;27.70;1.00
108;DHT22;49;48.530;9.200;2023-07-28T12:13:04;27.80;1.00
108;DHT22;49;48.530;9.200;2023-07-28T12:18:09;27.80;1.00
108;DHT22;49;48.530;9.200;2023-07-28T12:20:38;28.00;1.00
108;DHT22;49;48.530;9.200;2023-07-28T12:23:06;28.30;1.00
108;DHT22;49;48.530;9.200;2023-07-28T12:25:35;28.10;1.00
108;DHT22;49;48.530;9.200;2023-07-28T12:28:02;28.20;1.00
108;DHT22;49;48.530;9.200;2023-07-28T12:30:30;28.10;1.00
108;DHT22;49;48.530;9.200;2023-07-28T12:32:57;28.10;1.00
108;DHT22;49;48.530;9.200;2023-07-28T12:35:26;28.50;1.00
108;DHT22;49;48.530;9.200;2023-07-28T12:37:56;28.50;1.00
108;DHT22;49;48.530;9.200;2023-07-28T12:40:26;28.50;1.00
108;DHT22;49;48.530;9.200;2023-07-28T12:42:55;28.30;1.00
108;DHT22;49;48.530;9.200;2023-07-28T12:45:22;27.80;1.00
108;DHT22;49;48.530;9.200;2023-07-28T12:47:51;27.80;1.00
108;DHT22;49;48.530;9.200;2023-07-28T12:50:18;27.70;1.00
108;DHT22;49;48.530;9.200;2023-07-28T12:52:47;28.00;1.00
108;DHT22;49;48.530;9.200;2023-07-28T12:55:15;28.20;1.00
108;DHT22;49;48.530;9.200;2023-07-28T12:57:42;28.80;1.00
108;DHT22;49;48.530;9.200;2023-07-28T13:02:37;28.70;1.00
108;DHT22;49;48.530;9.200;2023-07-28T13:07:31;28.70;1.00
108;DHT22;49;48.530;9.200;2023-07-28T13:10:00;28.80;1.00
108;DHT22;49;48.530;9.200;2023-07-28T13:12:28;28.80;1.00
108;DHT22;49;48.530;9.200;2023-07-28T13:14:55;29.10;1.00
108;DHT22;49;48.530;9.200;2023-07-28T13:17:22;28.90;1.00
108;DHT22;49;48.530;9.200;2023-07-28T13:19:49;28.90;1.00
108;DHT22;49;48.530;9.200;2023-07-28T13:22:17;29.10;1.00
108;DHT22;49;48.530;9.200;2023-07-28T13:24:44;29.10;1.00
108;DHT22;49;48.530;9.200;2023-07-28T13:27:12;29.10;1.00
108;DHT22;49;48.530;9.200;2023-07-28T13:29:39;29.10;1.00
108;DHT22;49;48.530;9.200;2023-07-28T13:32:16;29.10;1.00
108;DHT22;49;48.530;9.200;2023-07-28T13:34:43;29.00;1.00
108;DHT22;49;48.530;9.200;2023-07-28T13:37:10;29.00;1.00
108;DHT22;49;48.530;9.200;2023-07-28T13:39:37;28.80;1.00
108;DHT22;49;48.530;9.200;2023-07-28T13:42:04;28.70;1.00
108;DHT22;49;48.530;9.200;2023-07-28T13:47:00;28.70;1.00
108;DHT22;49;48.530;9.200;2023-07-28T13:49:27;28.60;1.00
108;DHT22;49;48.530;9.200;2023-07-28T13:54:23;27.10;1.00
108;DHT22;49;48.530;9.200;2023-07-28T14:01:51;26.50;1.00
108;DHT22;49;48.530;9.200;2023-07-28T14:04:20;26.80;1.00
108;DHT22;49;48.530;9.200;2023-07-28T14:34:15;27.60;1.00
108;DHT22;49;48.530;9.200;2023-07-28T14:49:16;28.20;1.00
108;DHT22;49;48.530;9.200;2023-07-28T16:22:05;27.70;1.00
108;DHT22;49;48.530;9.200;2023-07-28T16:29:37;27.50;1.00
108;DHT22;49;48.530;9.200;2023-07-28T23:16:53;23.20;4.50
